sensor_id;sensor_type;location;lat;lon;timestamp;P1;durP1;ratioP1;P2;durP2;ratioP2
73863;SDS011;62200;52.062;5.292;2022-07-10T14:50:28;1.85;;;0.70;;
73863;SDS011;62200;52.062;5.292;2022-07-10T14:52:53;1.05;;;0.50;;
73863;SDS011;62200;52.062;5.292;2022-07-10T14:55:18;1.52;;;0.60;;
73863;SDS011;62200;52.062;5.292;2022-07-10T14:57:44;1.85;;;0.75;;
73863;SDS011;62200;52.062;5.292;2022-07-10T15:00:09;1.20;;;0.40;;
73863;SDS011;62200;52.062;5.292;2022-07-10T15:02:35;6.32;;;1.15;;
73863;SDS011;62200;52.062;5.292;2022-07-10T15:05:01;2.05;;;0.77;;
73863;SDS011;62200;52.062;5.292;2022-07-10T15:07:27;1.08;;;0.50;;
73863;SDS011;62200;52.062;5.292;2022-07-10T15:11:55;1.58;;;0.65;;
73863;SDS011;62200;52.062;5.292;2022-07-10T15:14:21;2.60;;;0.80;;
73863;SDS011;62200;52.062;5.292;2022-07-10T15:16:46;3.13;;;0.70;;
73863;SDS011;62200;52.062;5.292;2022-07-10T15:19:12;1.87;;;0.70;;
73863;SDS011;62200;52.062;5.292;2022-07-10T15:21:37;3.00;;;0.70;;
73863;SDS011;62200;52.062;5.292;2022-07-10T15:24:03;1.42;;;0.63;;
73863;SDS011;62200;52.062;5.292;2022-07-10T15:26:29;4.15;;;0.70;;
73863;SDS011;62200;52.062;5.292;2022-07-10T15:28:54;2.05;;;0.80;;
73863;SDS011;62200;52.062;5.292;2022-07-10T15:31:23;1.80;;;0.63;;
73863;SDS011;62200;52.062;5.292;2022-07-10T15:33:49;1.23;;;0.60;;
73863;SDS011;62200;52.062;5.292;2022-07-10T15:36:14;2.03;;;0.70;;
73863;SDS011;62200;52.062;5.292;2022-07-10T15:38:39;2.03;;;0.80;;
73863;SDS011;62200;52.062;5.292;2022-07-10T15:41:05;2.05;;;0.85;;
73863;SDS011;62200;52.062;5.292;2022-07-10T15:43:30;1.20;;;0.65;;
73863;SDS011;62200;52.062;5.292;2022-07-10T15:45:56;2.17;;;1.00;;
73863;SDS011;62200;52.062;5.292;2022-07-10T15:48:21;1.58;;;0.73;;
73863;SDS011;62200;52.062;5.292;2022-07-10T15:50:47;1.95;;;0.50;;
73863;SDS011;62200;52.062;5.292;2022-07-10T15:53:12;2.95;;;0.80;;
73863;SDS011;62200;52.062;5.292;2022-07-10T15:55:37;1.48;;;0.80;;
73863;SDS011;62200;52.062;5.292;2022-07-10T15:58:03;3.15;;;0.70;;
73863;SDS011;62200;52.062;5.292;2022-07-10T16:00:28;2.87;;;0.80;;
73863;SDS011;62200;52.062;5.292;2022-07-10T16:02:53;1.98;;;0.90;;
73863;SDS011;62200;52.062;5.292;2022-07-10T16:05:19;3.78;;;1.00;;
73863;SDS011;62200;52.062;5.292;2022-07-10T16:07:44;2.47;;;0.60;;
73863;SDS011;62200;52.062;5.292;2022-07-10T16:10:10;2.75;;;0.75;;
73863;SDS011;62200;52.062;5.292;2022-07-10T16:12:35;1.92;;;0.70;;
73863;SDS011;62200;52.062;5.292;2022-07-10T16:15:01;2.78;;;0.70;;
73863;SDS011;62200;52.062;5.292;2022-07-10T16:17:26;2.30;;;0.80;;
73863;SDS011;62200;52.062;5.292;2022-07-10T16:19:52;1.50;;;0.77;;
73863;SDS011;62200;52.062;5.292;2022-07-10T16:22:17;1.77;;;0.98;;
73863;SDS011;62200;52.062;5.292;2022-07-10T16:24:42;1.77;;;0.88;;
73863;SDS011;62200;52.062;5.292;2022-07-10T16:27:26;1.83;;;0.80;;
73863;SDS011;62200;52.062;5.292;2022-07-10T16:29:51;2.20;;;0.80;;
73863;SDS011;62200;52.062;5.292;2022-07-10T16:32:17;1.50;;;0.90;;
73863;SDS011;62200;52.062;5.292;2022-07-10T16:34:44;2.65;;;1.00;;
73863;SDS011;62200;52.062;5.292;2022-07-10T16:37:10;2.78;;;0.90;;
73863;SDS011;62200;52.062;5.292;2022-07-10T16:39:35;1.83;;;0.90;;
73863;SDS011;62200;52.062;5.292;2022-07-10T16:42:00;1.88;;;0.80;;
73863;SDS011;62200;52.062;5.292;2022-07-10T16:44:26;2.40;;;0.63;;
73863;SDS011;62200;52.062;5.292;2022-07-10T16:46:51;1.80;;;0.70;;
73863;SDS011;62200;52.062;5.292;2022-07-10T16:49:16;1.73;;;0.70;;
73863;SDS011;62200;52.062;5.292;2022-07-10T16:51:42;2.80;;;0.60;;
73863;SDS011;62200;52.062;5.292;2022-07-10T16:54:08;2.20;;;0.98;;
73863;SDS011;62200;52.062;5.292;2022-07-10T16:56:33;2.53;;;0.70;;
73863;SDS011;62200;52.062;5.292;2022-07-10T16:58:59;2.20;;;0.70;;
73863;SDS011;62200;52.062;5.292;2022-07-10T17:01:24;1.75;;;0.73;;
73863;SDS011;62200;52.062;5.292;2022-07-10T17:03:49;2.50;;;0.87;;
73863;SDS011;62200;52.062;5.292;2022-07-10T17:06:15;2.63;;;1.00;;
73863;SDS011;62200;52.062;5.292;2022-07-10T17:08:40;2.30;;;0.90;;
73863;SDS011;62200;52.062;5.292;2022-07-10T17:11:06;3.05;;;1.08;;
73863;SDS011;62200;52.062;5.292;2022-07-10T17:13:31;1.70;;;0.90;;
73863;SDS011;62200;52.062;5.292;2022-07-10T17:15:56;2.25;;;0.70;;
73863;SDS011;62200;52.062;5.292;2022-07-10T17:18:22;2.07;;;0.90;;
73863;SDS011;62200;52.062;5.292;2022-07-10T17:20:48;2.03;;;0.90;;
73863;SDS011;62200;52.062;5.292;2022-07-10T17:23:13;2.60;;;0.95;;
73863;SDS011;62200;52.062;5.292;2022-07-10T17:25:39;2.47;;;1.15;;
73863;SDS011;62200;52.062;5.292;2022-07-10T17:28:04;2.47;;;0.93;;
73863;SDS011;62200;52.062;5.292;2022-07-10T17:30:30;2.15;;;1.17;;
73863;SDS011;62200;52.062;5.292;2022-07-10T17:32:55;1.85;;;0.93;;
73863;SDS011;62200;52.062;5.292;2022-07-10T17:35:21;3.03;;;1.30;;
73863;SDS011;62200;52.062;5.292;2022-07-10T17:37:46;2.53;;;1.23;;
73863;SDS011;62200;52.062;5.292;2022-07-10T17:40:11;2.72;;;1.60;;
73863;SDS011;62200;52.062;5.292;2022-07-10T17:42:37;2.60;;;1.50;;
73863;SDS011;62200;52.062;5.292;2022-07-10T17:45:06;4.45;;;1.70;;
73863;SDS011;62200;52.062;5.292;2022-07-10T17:47:31;2.90;;;1.20;;
73863;SDS011;62200;52.062;5.292;2022-07-10T17:49:57;2.73;;;1.63;;
73863;SDS011;62200;52.062;5.292;2022-07-10T17:52:22;3.45;;;1.40;;
73863;SDS011;62200;52.062;5.292;2022-07-10T17:54:48;2.58;;;1.70;;
73863;SDS011;62200;52.062;5.292;2022-07-10T17:57:13;2.83;;;1.70;;
73863;SDS011;62200;52.062;5.292;2022-07-10T17:59:39;3.30;;;1.52;;
73863;SDS011;62200;52.062;5.292;2022-07-10T18:02:04;3.15;;;1.40;;
73863;SDS011;62200;52.062;5.292;2022-07-10T18:04:31;4.00;;;1.58;;
73863;SDS011;62200;52.062;5.292;2022-07-10T18:06:56;4.20;;;1.45;;
73863;SDS011;62200;52.062;5.292;2022-07-10T18:09:22;2.47;;;1.30;;
73863;SDS011;62200;52.062;5.292;2022-07-10T18:11:48;3.05;;;1.20;;
73863;SDS011;62200;52.062;5.292;2022-07-10T18:14:13;3.25;;;1.75;;
73863;SDS011;62200;52.062;5.292;2022-07-10T18:16:39;3.17;;;1.20;;
73863;SDS011;62200;52.062;5.292;2022-07-10T18:19:05;2.63;;;1.30;;
73863;SDS011;62200;52.062;5.292;2022-07-10T18:21:30;1.95;;;1.00;;
73863;SDS011;62200;52.062;5.292;2022-07-10T18:23:57;3.00;;;1.38;;
73863;SDS011;62200;52.062;5.292;2022-07-10T18:26:26;3.20;;;1.08;;
73863;SDS011;62200;52.062;5.292;2022-07-10T18:28:53;2.90;;;1.48;;
73863;SDS011;62200;52.062;5.292;2022-07-10T18:31:18;1.75;;;1.00;;
73863;SDS011;62200;52.062;5.292;2022-07-10T18:33:43;4.93;;;1.60;;
73863;SDS011;62200;52.062;5.292;2022-07-10T18:36:28;3.75;;;1.50;;
73863;SDS011;62200;52.062;5.292;2022-07-10T18:38:54;2.80;;;1.10;;
73863;SDS011;62200;52.062;5.292;2022-07-10T18:41:20;2.60;;;1.33;;
73863;SDS011;62200;52.062;5.292;2022-07-10T18:43:45;1.73;;;1.10;;
73863;SDS011;62200;52.062;5.292;2022-07-10T18:46:10;2.38;;;1.17;;
73863;SDS011;62200;52.062;5.292;2022-07-10T18:48:36;3.23;;;1.40;;
73863;SDS011;62200;52.062;5.292;2022-07-10T18:51:01;2.80;;;1.40;;
73863;SDS011;62200;52.062;5.292;2022-07-10T18:53:26;1.98;;;1.20;;
73863;SDS011;62200;52.062;5.292;2022-07-10T18:55:52;4.15;;;1.60;;
73863;SDS011;62200;52.062;5.292;2022-07-10T18:58:18;4.22;;;1.60;;
73863;SDS011;62200;52.062;5.292;2022-07-10T19:00:43;2.80;;;1.30;;
73863;SDS011;62200;52.062;5.292;2022-07-10T19:03:09;2.50;;;1.13;;
73863;SDS011;62200;52.062;5.292;2022-07-10T19:05:35;2.67;;;1.20;;
73863;SDS011;62200;52.062;5.292;2022-07-10T19:08:00;2.00;;;1.20;;
73863;SDS011;62200;52.062;5.292;2022-07-10T19:10:26;2.33;;;1.27;;
73863;SDS011;62200;52.062;5.292;2022-07-10T19:12:52;2.83;;;1.30;;
73863;SDS011;62200;52.062;5.292;2022-07-10T19:15:18;2.80;;;1.33;;
73863;SDS011;62200;52.062;5.292;2022-07-10T19:17:44;2.90;;;1.50;;
73863;SDS011;62200;52.062;5.292;2022-07-10T19:20:09;2.80;;;1.58;;
73863;SDS011;62200;52.062;5.292;2022-07-10T19:22:38;3.08;;;1.30;;
73863;SDS011;62200;52.062;5.292;2022-07-10T19:25:04;2.78;;;1.17;;
73863;SDS011;62200;52.062;5.292;2022-07-10T19:27:30;2.13;;;1.10;;
73863;SDS011;62200;52.062;5.292;2022-07-10T19:29:55;1.90;;;1.10;;
73863;SDS011;62200;52.062;5.292;2022-07-10T19:32:21;2.35;;;1.40;;
73863;SDS011;62200;52.062;5.292;2022-07-10T19:34:46;2.30;;;1.23;;
73863;SDS011;62200;52.062;5.292;2022-07-10T19:37:11;2.70;;;1.42;;
73863;SDS011;62200;52.062;5.292;2022-07-10T19:39:37;2.13;;;1.25;;
73863;SDS011;62200;52.062;5.292;2022-07-10T19:42:03;4.03;;;1.40;;
73863;SDS011;62200;52.062;5.292;2022-07-10T19:44:30;4.22;;;1.40;;
73863;SDS011;62200;52.062;5.292;2022-07-10T19:46:56;3.05;;;1.30;;
73863;SDS011;62200;52.062;5.292;2022-07-10T19:49:22;4.35;;;1.38;;
73863;SDS011;62200;52.062;5.292;2022-07-10T19:51:49;4.45;;;1.70;;
73863;SDS011;62200;52.062;5.292;2022-07-10T19:54:17;2.78;;;1.10;;
73863;SDS011;62200;52.062;5.292;2022-07-10T19:56:42;3.33;;;1.30;;
73863;SDS011;62200;52.062;5.292;2022-07-10T19:59:08;2.30;;;1.42;;
73863;SDS011;62200;52.062;5.292;2022-07-10T20:01:33;2.60;;;1.30;;
73863;SDS011;62200;52.062;5.292;2022-07-10T20:03:58;3.05;;;1.40;;
73863;SDS011;62200;52.062;5.292;2022-07-10T20:06:24;4.85;;;1.50;;
73863;SDS011;62200;52.062;5.292;2022-07-10T20:08:49;3.75;;;1.63;;
73863;SDS011;62200;52.062;5.292;2022-07-10T20:11:15;2.85;;;1.38;;
73863;SDS011;62200;52.062;5.292;2022-07-10T20:13:40;2.65;;;1.17;;
73863;SDS011;62200;52.062;5.292;2022-07-10T20:16:06;2.50;;;1.45;;
73863;SDS011;62200;52.062;5.292;2022-07-10T20:18:31;2.92;;;1.25;;
73863;SDS011;62200;52.062;5.292;2022-07-10T20:20:56;3.60;;;1.27;;
73863;SDS011;62200;52.062;5.292;2022-07-10T20:23:22;3.28;;;1.30;;
73863;SDS011;62200;52.062;5.292;2022-07-10T20:25:48;3.55;;;1.17;;
73863;SDS011;62200;52.062;5.292;2022-07-10T20:28:14;3.40;;;1.25;;
73863;SDS011;62200;52.062;5.292;2022-07-10T20:30:39;3.70;;;1.48;;
73863;SDS011;62200;52.062;5.292;2022-07-10T20:33:05;3.22;;;1.48;;
73863;SDS011;62200;52.062;5.292;2022-07-10T20:35:30;3.10;;;1.53;;
73863;SDS011;62200;52.062;5.292;2022-07-10T20:37:56;3.58;;;1.30;;
73863;SDS011;62200;52.062;5.292;2022-07-10T20:40:23;4.57;;;1.25;;
73863;SDS011;62200;52.062;5.292;2022-07-10T20:42:48;2.40;;;1.10;;
73863;SDS011;62200;52.062;5.292;2022-07-10T20:45:14;3.97;;;1.50;;
73863;SDS011;62200;52.062;5.292;2022-07-10T20:47:40;4.30;;;1.30;;
73863;SDS011;62200;52.062;5.292;2022-07-10T20:50:06;3.05;;;1.38;;
73863;SDS011;62200;52.062;5.292;2022-07-10T20:52:32;2.72;;;1.40;;
73863;SDS011;62200;52.062;5.292;2022-07-10T20:54:57;3.47;;;1.23;;
73863;SDS011;62200;52.062;5.292;2022-07-10T20:57:23;2.42;;;1.23;;
73863;SDS011;62200;52.062;5.292;2022-07-10T20:59:49;3.10;;;1.80;;
73863;SDS011;62200;52.062;5.292;2022-07-10T21:02:15;4.25;;;1.40;;
73863;SDS011;62200;52.062;5.292;2022-07-10T21:04:42;4.85;;;1.58;;
73863;SDS011;62200;52.062;5.292;2022-07-10T21:07:11;3.35;;;1.45;;
73863;SDS011;62200;52.062;5.292;2022-07-10T21:09:37;3.78;;;1.17;;
73863;SDS011;62200;52.062;5.292;2022-07-10T21:12:03;3.08;;;1.40;;
73863;SDS011;62200;52.062;5.292;2022-07-10T21:14:28;3.78;;;1.63;;
73863;SDS011;62200;52.062;5.292;2022-07-10T21:16:53;3.97;;;1.23;;
73863;SDS011;62200;52.062;5.292;2022-07-10T21:19:19;3.38;;;1.27;;
73863;SDS011;62200;52.062;5.292;2022-07-10T21:21:44;3.70;;;1.40;;
73863;SDS011;62200;52.062;5.292;2022-07-10T21:24:09;4.77;;;1.50;;
73863;SDS011;62200;52.062;5.292;2022-07-10T21:26:35;2.78;;;1.13;;
73863;SDS011;62200;52.062;5.292;2022-07-10T21:29:00;3.17;;;1.40;;
73863;SDS011;62200;52.062;5.292;2022-07-10T21:31:26;2.50;;;1.33;;
73863;SDS011;62200;52.062;5.292;2022-07-10T21:33:52;3.30;;;1.55;;
73863;SDS011;62200;52.062;5.292;2022-07-10T21:36:17;3.35;;;1.52;;
73863;SDS011;62200;52.062;5.292;2022-07-10T21:38:43;3.03;;;1.48;;
73863;SDS011;62200;52.062;5.292;2022-07-10T21:41:08;2.47;;;1.23;;
73863;SDS011;62200;52.062;5.292;2022-07-10T21:43:34;2.38;;;1.25;;
73863;SDS011;62200;52.062;5.292;2022-07-10T21:46:00;3.42;;;1.60;;
73863;SDS011;62200;52.062;5.292;2022-07-10T21:48:25;3.03;;;1.30;;
73863;SDS011;62200;52.062;5.292;2022-07-10T21:50:51;3.40;;;1.65;;
73863;SDS011;62200;52.062;5.292;2022-07-10T21:53:17;3.38;;;1.48;;
73863;SDS011;62200;52.062;5.292;2022-07-10T21:55:42;2.30;;;1.17;;
73863;SDS011;62200;52.062;5.292;2022-07-10T21:58:07;3.60;;;1.35;;
73863;SDS011;62200;52.062;5.292;2022-07-10T22:00:33;3.45;;;1.48;;
73863;SDS011;62200;52.062;5.292;2022-07-10T22:02:58;4.07;;;1.58;;
73863;SDS011;62200;52.062;5.292;2022-07-10T22:05:24;3.42;;;1.60;;
73863;SDS011;62200;52.062;5.292;2022-07-10T22:07:49;2.67;;;1.33;;
73863;SDS011;62200;52.062;5.292;2022-07-10T22:10:15;3.15;;;1.50;;
73863;SDS011;62200;52.062;5.292;2022-07-10T22:12:40;4.32;;;1.40;;
73863;SDS011;62200;52.062;5.292;2022-07-10T22:15:06;3.05;;;1.10;;
73863;SDS011;62200;52.062;5.292;2022-07-10T22:17:32;1.95;;;1.10;;
73863;SDS011;62200;52.062;5.292;2022-07-10T22:20:04;2.53;;;1.38;;
73863;SDS011;62200;52.062;5.292;2022-07-10T22:22:30;2.53;;;1.42;;
73863;SDS011;62200;52.062;5.292;2022-07-10T22:24:56;2.30;;;1.08;;
73863;SDS011;62200;52.062;5.292;2022-07-10T22:27:21;3.17;;;1.38;;
73863;SDS011;62200;52.062;5.292;2022-07-10T22:29:46;3.33;;;1.40;;
73863;SDS011;62200;52.062;5.292;2022-07-10T22:32:12;3.07;;;1.10;;
73863;SDS011;62200;52.062;5.292;2022-07-10T22:34:37;3.00;;;1.40;;
73863;SDS011;62200;52.062;5.292;2022-07-10T22:37:02;2.50;;;1.40;;
73863;SDS011;62200;52.062;5.292;2022-07-10T22:39:28;2.28;;;1.00;;
73863;SDS011;62200;52.062;5.292;2022-07-10T22:41:53;3.27;;;1.50;;
73863;SDS011;62200;52.062;5.292;2022-07-10T22:44:18;2.93;;;1.60;;
73863;SDS011;62200;52.062;5.292;2022-07-10T22:46:44;3.90;;;1.20;;
73863;SDS011;62200;52.062;5.292;2022-07-10T22:49:09;4.20;;;1.45;;
73863;SDS011;62200;52.062;5.292;2022-07-10T22:51:34;2.42;;;1.17;;
73863;SDS011;62200;52.062;5.292;2022-07-10T22:54:00;2.75;;;1.10;;
73863;SDS011;62200;52.062;5.292;2022-07-10T22:56:25;2.50;;;1.00;;
73863;SDS011;62200;52.062;5.292;2022-07-10T22:58:51;3.78;;;1.48;;
73863;SDS011;62200;52.062;5.292;2022-07-10T23:01:19;2.45;;;1.35;;
73863;SDS011;62200;52.062;5.292;2022-07-10T23:03:44;3.38;;;1.27;;
73863;SDS011;62200;52.062;5.292;2022-07-10T23:06:10;3.13;;;1.40;;
73863;SDS011;62200;52.062;5.292;2022-07-10T23:08:35;2.85;;;1.23;;
73863;SDS011;62200;52.062;5.292;2022-07-10T23:11:01;2.60;;;1.50;;
73863;SDS011;62200;52.062;5.292;2022-07-10T23:13:27;2.45;;;1.05;;
73863;SDS011;62200;52.062;5.292;2022-07-10T23:15:52;2.47;;;1.23;;
73863;SDS011;62200;52.062;5.292;2022-07-10T23:18:18;3.30;;;1.20;;
73863;SDS011;62200;52.062;5.292;2022-07-10T23:20:43;3.60;;;1.08;;
73863;SDS011;62200;52.062;5.292;2022-07-10T23:23:08;2.85;;;1.20;;
73863;SDS011;62200;52.062;5.292;2022-07-10T23:25:34;2.72;;;1.30;;
73863;SDS011;62200;52.062;5.292;2022-07-10T23:27:59;2.10;;;1.10;;
73863;SDS011;62200;52.062;5.292;2022-07-10T23:30:24;2.97;;;1.30;;
73863;SDS011;62200;52.062;5.292;2022-07-10T23:32:50;3.42;;;1.10;;
73863;SDS011;62200;52.062;5.292;2022-07-10T23:35:15;3.40;;;1.67;;
73863;SDS011;62200;52.062;5.292;2022-07-10T23:37:40;2.78;;;1.20;;
73863;SDS011;62200;52.062;5.292;2022-07-10T23:40:07;3.53;;;1.30;;
73863;SDS011;62200;52.062;5.292;2022-07-10T23:42:32;2.00;;;1.00;;
73863;SDS011;62200;52.062;5.292;2022-07-10T23:45:00;3.92;;;1.15;;
73863;SDS011;62200;52.062;5.292;2022-07-10T23:47:26;2.42;;;1.20;;
73863;SDS011;62200;52.062;5.292;2022-07-10T23:49:52;3.28;;;1.30;;
73863;SDS011;62200;52.062;5.292;2022-07-10T23:52:32;3.25;;;1.60;;
73863;SDS011;62200;52.062;5.292;2022-07-10T23:55:01;3.35;;;1.60;;
73863;SDS011;62200;52.062;5.292;2022-07-10T23:57:27;2.95;;;0.90;;
73863;SDS011;62200;52.062;5.292;2022-07-10T23:59:52;2.60;;;1.30;;
